KNGP/NGP METAR and TAF weather

Enter ICAO airport designator
Station Type Date Time Source
KNGP METAR 2021/04/13 20:56 UTC NOAA

KNGP 132056Z 10009KT 7SM FEW020 SCT045 BKN070 27/23 A2984 RMK AO2 SLP106 T02720228 56015


Station Type Date Time Source
KNGP Decoded METAR 2021/04/13 20:56 UTC NOAA

CORPUS CHRISTI NAVAL AIR STN, TX, United States (KNGP) 27-41N 097-17W
Apr 13, 2021 - 04:56 PM EDT / 2021.04.13 2056 UTC
Wind: from the E (100 degrees) at 10 MPH (9 KT):0
Visibility: 7 mile(s):0
Sky conditions: mostly cloudy
Temperature: 81.0 F (27.2 C)
Dew Point: 73.0 F (22.8 C)
Relative Humidity: 76%
Pressure (altimeter): 29.84 in. Hg (1010 hPa)
Pressure tendency: 0.04 inches (1.5 hPa) lower than three hours ago
ob: KNGP 132056Z 10009KT 7SM FEW020 SCT045 BKN070 27/23 A2984 RMK AO2 SLP106 T02720228 56015
cycle: 21

Station Type Date Time Source
KNGP TAF 2021/04/13 15:53 UTC NOAA

TAF KNGP 1315/1415 11011KT 6000 BR SCT006 OVC018 QNH2985INS
TEMPO 1315/1317 2400 BR BKN004 OVC013
FM131900 09008KT 9000 HZ SCT015 BKN035 QNH2981INS
TEMPO 1320/1323 9999 SCT015 SCT035
FM132300 09008KT 6000 BR BKN008 OVC016 QNH2982INS
TEMPO 1323/1401 1200 BR OVC004
FM140100 10006KT 0400 FG VV002 QNH2984INS
FM141200 VRB04KT 2400 BR OVC002 QNH2989INS
FM141400 15006KT 4000 BR OVC003 QNH2991INS T28/1319Z T22/1412Z FN20044

Example: see airport list